Time,TemperatureF,DewpointF,PressureIn,WindDirection,WindDirectionDegrees,WindSpeedMPH,WindSpeedGustMPH,Humidity,HourlyPrecipIn,Conditions,Clouds,dailyrainin,SoftwareType,DateUTC
2013-09-24 00:01:00,44.1,34.2,30.14,West,268,0.0,0.0,68,0.00,SCT,SCT,0.00,WeatherDisplay:10.34,2013-09-24 04:01:00,
2013-09-24 00:04:00,44.1,34.2,30.14,WSW,243,0.0,0.0,68,0.00,SCT,SCT,0.00,WeatherDisplay:10.34,2013-09-24 04:04:00,
2013-09-24 00:05:00,43.9,34.0,30.14,WSW,245,0.0,5.0,68,0.00,FEW,FEW,0.00,WeatherDisplay:10.34,2013-09-24 04:05:00,
2013-09-24 00:06:00,43.9,34.0,30.14,NNE,18,3.0,5.0,68,0.00,FEW,FEW,0.00,WeatherDisplay:10.34,2013-09-24 04:06:00,
2013-09-24 00:07:00,43.9,34.0,30.14,NNE,18,0.0,3.0,68,0.00,FEW,FEW,0.00,WeatherDisplay:10.34,2013-09-24 04:07:00,
2013-09-24 00:12:00,43.7,33.8,30.14,NNE,19,3.0,3.0,68,0.00,FEW,FEW,0.00,WeatherDisplay:10.34,2013-09-24 04:12:00,
2013-09-24 00:17:00,43.7,34.2,30.14,NNE,18,0.0,0.0,69,0.00,FEW,FEW,0.00,WeatherDisplay:10.34,2013-09-24 04:17:00,
2013-09-24 00:22:00,43.7,34.2,30.14,NNW,346,0.0,5.0,69,0.00,FEW,FEW,0.00,WeatherDisplay:10.34,2013-09-24 04:22:00,
2013-09-24 00:27:00,43.9,34.4,30.14,North,7,0.0,3.0,69,0.00,FEW,FEW,0.00,WeatherDisplay:10.34,2013-09-24 04:27:00,
2013-09-24 00:32:00,43.7,34.2,30.11,North,5,0.0,2.0,69,0.00,FEW,FEW,0.00,WeatherDisplay:10.34,2013-09-24 04:32:00,
2013-09-24 00:37:00,43.9,34.4,30.11,North,3,3.0,5.0,69,0.00,FEW,FEW,0.00,WeatherDisplay:10.34,2013-09-24 04:37:00,
2013-09-24 00:42:00,44.2,34.7,30.11,NNW,346,3.0,6.0,69,0.00,FEW,FEW,0.00,WeatherDisplay:10.34,2013-09-24 04:42:00,
2013-09-24 00:47:00,44.2,34.7,30.11,North,351,3.0,7.0,69,0.00,FEW,FEW,0.00,WeatherDisplay:10.34,2013-09-24 04:47:00,
2013-09-24 00:52:00,44.4,34.5,30.11,NNW,347,4.0,6.0,68,0.00,FEW,FEW,0.00,WeatherDisplay:10.34,2013-09-24 04:52:00,
2013-09-24 00:57:00,44.4,34.5,30.11,NE,34,4.0,4.0,68,0.00,FEW,FEW,0.00,WeatherDisplay:10.34,2013-09-24 04:57:00,
2013-09-24 01:02:00,44.6,33.9,30.11,North,5,4.0,8.0,66,0.00,FEW,FEW,0.00,WeatherDisplay:10.34,2013-09-24 05:02:00,
2013-09-24 01:07:00,44.8,33.7,30.11,NNW,342,7.0,14.0,65,0.00,FEW,FEW,0.00,WeatherDisplay:10.34,2013-09-24 05:07:00,
2013-09-24 01:12:00,44.8,32.9,30.11,NE,35,5.0,8.0,63,0.00,FEW,FEW,0.00,WeatherDisplay:10.34,2013-09-24 05:12:00,
2013-09-24 01:17:00,45.0,32.7,30.10,NW,317,0.0,6.0,62,0.00,FEW,FEW,0.00,WeatherDisplay:10.34,2013-09-24 05:17:00,
2013-09-24 01:22:00,45.0,32.7,30.11,South,174,4.0,5.0,62,0.00,FEW,FEW,0.00,WeatherDisplay:10.34,2013-09-24 05:22:00,
2013-09-24 01:27:00,45.0,33.1,30.11,South,190,0.0,3.0,63,0.00,FEW,FEW,0.00,WeatherDisplay:10.34,2013-09-24 05:27:00,
2013-09-24 01:32:00,44.8,33.3,30.11,South,190,0.0,0.0,64,0.00,FEW,FEW,0.00,WeatherDisplay:10.34,2013-09-24 05:32:00,
2013-09-24 01:37:00,44.6,33.6,30.11,West,275,3.0,6.0,65,0.00,FEW,FEW,0.00,WeatherDisplay:10.34,2013-09-24 05:37:00,
2013-09-24 01:42:00,44.6,33.6,30.11,SSW,213,0.0,7.0,65,0.00,FEW,FEW,0.00,WeatherDisplay:10.34,2013-09-24 05:42:00,
2013-09-24 01:47:00,44.6,33.6,30.11,SSW,212,0.0,3.0,65,0.00,FEW,FEW,0.00,WeatherDisplay:10.34,2013-09-24 05:47:00,
2013-09-24 01:52:00,44.6,33.2,30.11,NNW,345,0.0,0.0,64,0.00,FEW,FEW,0.00,WeatherDisplay:10.34,2013-09-24 05:52:00,
2013-09-24 01:57:00,44.6,32.8,30.11,NNE,14,4.0,9.0,63,0.00,FEW,FEW,0.00,WeatherDisplay:10.34,2013-09-24 05:57:00,
2013-09-24 02:02:00,44.8,32.9,30.10,NNE,30,3.0,7.0,63,0.00,FEW,FEW,0.00,WeatherDisplay:10.34,2013-09-24 06:02:00,
2013-09-24 02:07:00,44.6,32.8,30.10,North,351,0.0,0.0,63,0.00,CLR,CLR,0.00,WeatherDisplay:10.34,2013-09-24 06:07:00,
2013-09-24 02:12:00,44.8,32.1,30.11,West,267,3.0,6.0,61,0.00,CLR,CLR,0.00,WeatherDisplay:10.34,2013-09-24 06:12:00,
2013-09-24 02:17:00,44.8,32.1,30.08,SSW,202,0.0,0.0,61,0.00,CLR,CLR,0.00,WeatherDisplay:10.34,2013-09-24 06:17:00,
2013-09-24 02:22:00,44.8,32.1,30.08,SSW,202,0.0,0.0,61,0.00,CLR,CLR,0.00,WeatherDisplay:10.34,2013-09-24 06:22:00,
2013-09-24 02:27:00,44.6,32.8,30.08,South,180,0.0,0.0,63,0.00,CLR,CLR,0.00,WeatherDisplay:10.34,2013-09-24 06:27:00,
2013-09-24 02:32:00,44.4,33.0,30.11,South,180,0.0,0.0,64,0.00,CLR,CLR,0.00,WeatherDisplay:10.34,2013-09-24 06:32:00,
2013-09-24 02:37:00,44.2,32.8,30.11,South,191,0.0,0.0,64,0.00,CLR,CLR,0.00,WeatherDisplay:10.34,2013-09-24 06:37:00,
2013-09-24 02:42:00,44.2,33.2,30.11,WSW,251,0.0,0.0,65,0.00,CLR,CLR,0.00,WeatherDisplay:10.34,2013-09-24 06:42:00,
2013-09-24 02:47:00,44.2,32.8,30.08,WSW,251,0.0,0.0,64,0.00,CLR,CLR,0.00,WeatherDisplay:10.34,2013-09-24 06:47:00,
2013-09-24 02:52:00,44.2,32.8,30.08,West,262,0.0,0.0,64,0.00,CLR,CLR,0.00,WeatherDisplay:10.34,2013-09-24 06:52:00,
2013-09-24 02:57:00,44.4,33.0,30.08,SW,233,0.0,3.0,64,0.00,CLR,CLR,0.00,WeatherDisplay:10.34,2013-09-24 06:57:00,
2013-09-24 03:02:00,44.4,33.0,30.08,SW,232,0.0,3.0,64,0.00,CLR,CLR,0.00,WeatherDisplay:10.34,2013-09-24 07:02:00,
2013-09-24 03:07:00,44.2,32.4,30.08,SW,232,0.0,3.0,63,0.00,FEW,FEW,0.00,WeatherDisplay:10.34,2013-09-24 07:07:00,
2013-09-24 03:12:00,44.1,32.7,30.08,SW,233,0.0,0.0,64,0.00,FEW,FEW,0.00,WeatherDisplay:10.34,2013-09-24 07:12:00,
2013-09-24 03:17:00,44.2,32.8,30.08,SW,233,0.0,0.0,64,0.00,FEW,FEW,0.00,WeatherDisplay:10.34,2013-09-24 07:17:00,
2013-09-24 03:22:00,44.1,33.0,30.08,SW,234,0.0,0.0,65,0.00,FEW,FEW,0.00,WeatherDisplay:10.34,2013-09-24 07:22:00,
2013-09-24 03:27:00,43.5,32.5,30.08,SW,233,0.0,0.0,65,0.00,FEW,FEW,0.00,WeatherDisplay:10.34,2013-09-24 07:27:00,
2013-09-24 03:32:00,43.3,32.7,30.08,SW,233,0.0,0.0,66,0.00,FEW,FEW,0.00,WeatherDisplay:10.34,2013-09-24 07:32:00,
2013-09-24 03:37:00,43.0,32.8,30.08,SW,233,0.0,2.0,67,0.00,FEW,FEW,0.00,WeatherDisplay:10.34,2013-09-24 07:37:00,
2013-09-24 03:42:00,43.0,33.1,30.08,SW,233,0.0,3.0,68,0.00,FEW,FEW,0.00,WeatherDisplay:10.34,2013-09-24 07:42:00,
2013-09-24 03:47:00,42.8,33.0,30.08,SW,233,0.0,0.0,68,0.00,FEW,FEW,0.00,WeatherDisplay:10.34,2013-09-24 07:47:00,
2013-09-24 03:52:00,42.6,33.2,30.08,NNE,14,0.0,3.0,69,0.00,FEW,FEW,0.00,WeatherDisplay:10.34,2013-09-24 07:52:00,
2013-09-24 03:57:00,43.0,33.5,30.08,NNE,15,0.0,3.0,69,0.00,FEW,FEW,0.00,WeatherDisplay:10.34,2013-09-24 07:57:00,
2013-09-24 04:02:00,43.3,33.1,30.08,NNW,347,6.0,8.0,67,0.00,FEW,FEW,0.00,WeatherDisplay:10.34,2013-09-24 08:02:00,
2013-09-24 04:07:00,43.3,32.4,30.08,North,351,5.0,7.0,65,0.00,SCT,SCT,0.00,WeatherDisplay:10.34,2013-09-24 08:07:00,
2013-09-24 04:12:00,43.5,32.1,30.08,North,2,0.0,5.0,64,0.00,SCT,SCT,0.00,WeatherDisplay:10.34,2013-09-24 08:12:00,
2013-09-24 04:17:00,43.5,31.4,30.08,NNE,33,0.0,3.0,62,0.00,SCT,SCT,0.00,WeatherDisplay:10.34,2013-09-24 08:17:00,
2013-09-24 04:22:00,43.5,31.4,30.08,North,3,3.0,5.0,62,0.00,SCT,SCT,0.00,WeatherDisplay:10.34,2013-09-24 08:22:00,
2013-09-24 04:27:00,43.7,31.5,30.08,North,1,3.0,3.0,62,0.00,SCT,SCT,0.00,WeatherDisplay:10.34,2013-09-24 08:27:00,
2013-09-24 04:32:00,43.7,31.5,30.08,North,5,0.0,2.0,62,0.00,SCT,SCT,0.00,WeatherDisplay:10.34,2013-09-24 08:32:00,
2013-09-24 04:37:00,43.7,30.7,30.08,North,2,3.0,3.0,60,0.00,SCT,SCT,0.00,WeatherDisplay:10.34,2013-09-24 08:37:00,
2013-09-24 04:42:00,43.7,30.7,30.08,West,269,0.0,2.0,60,0.00,SCT,SCT,0.00,WeatherDisplay:10.34,2013-09-24 08:42:00,
2013-09-24 04:47:00,43.7,30.7,30.08,SW,226,3.0,3.0,60,0.00,SCT,SCT,0.00,WeatherDisplay:10.34,2013-09-24 08:47:00,
2013-09-24 04:52:00,43.7,31.1,30.08,WSW,244,0.0,0.0,61,0.00,SCT,SCT,0.00,WeatherDisplay:10.34,2013-09-24 08:52:00,
2013-09-24 04:57:00,43.9,31.3,30.08,WSW,242,0.0,0.0,61,0.00,SCT,SCT,0.00,WeatherDisplay:10.34,2013-09-24 08:57:00,
2013-09-24 05:02:00,43.3,31.2,30.08,WSW,241,0.0,2.0,62,0.00,SCT,SCT,0.00,WeatherDisplay:10.34,2013-09-24 09:02:00,
2013-09-24 05:07:00,43.2,31.0,30.08,WSW,242,0.0,0.0,62,0.00,BKN,BKN,0.00,WeatherDisplay:10.34,2013-09-24 09:07:00,
2013-09-24 05:12:00,43.0,31.2,30.08,West,275,0.0,3.0,63,0.00,BKN,BKN,0.00,WeatherDisplay:10.34,2013-09-24 09:12:00,
2013-09-24 05:17:00,43.0,31.6,30.08,West,266,0.0,5.0,64,0.00,BKN,BKN,0.00,WeatherDisplay:10.34,2013-09-24 09:17:00,
2013-09-24 05:22:00,43.0,31.6,30.08,NNE,33,0.0,0.0,64,0.00,BKN,BKN,0.00,WeatherDisplay:10.34,2013-09-24 09:22:00,
2013-09-24 05:27:00,42.6,32.0,30.08,NE,37,0.0,0.0,66,0.00,BKN,BKN,0.00,WeatherDisplay:10.34,2013-09-24 09:27:00,
2013-09-24 05:32:00,42.4,31.9,30.08,SW,220,0.0,3.0,66,0.00,BKN,BKN,0.00,WeatherDisplay:10.34,2013-09-24 09:32:00,
2013-09-24 05:38:00,42.3,32.4,30.08,SW,217,0.0,0.0,68,0.00,BKN,BKN,0.00,WeatherDisplay:10.34,2013-09-24 09:38:00,
2013-09-24 05:43:00,42.3,32.4,30.08,SW,217,0.0,0.0,68,0.00,BKN,BKN,0.00,WeatherDisplay:10.34,2013-09-24 09:43:00,
2013-09-24 05:48:00,42.1,32.3,30.08,SSW,207,0.0,0.0,68,0.00,BKN,BKN,0.00,WeatherDisplay:10.34,2013-09-24 09:48:00,
2013-09-24 05:53:00,42.1,32.6,30.08,SSW,207,0.0,0.0,69,0.00,BKN,BKN,0.00,WeatherDisplay:10.34,2013-09-24 09:53:00,
2013-09-24 05:58:00,42.3,33.2,30.08,SSW,207,0.0,0.0,70,0.00,BKN,BKN,0.00,WeatherDisplay:10.34,2013-09-24 09:58:00,
2013-09-24 06:03:00,42.3,33.2,30.08,SW,216,0.0,0.0,70,0.00,BKN,BKN,0.00,WeatherDisplay:10.34,2013-09-24 10:03:00,
2013-09-24 06:08:00,42.3,33.2,30.08,SW,215,0.0,0.0,70,0.00,CLR,CLR,0.00,WeatherDisplay:10.34,2013-09-24 10:08:00,
2013-09-24 06:13:00,42.3,33.2,30.08,SW,221,0.0,0.0,70,0.00,CLR,CLR,0.00,WeatherDisplay:10.34,2013-09-24 10:13:00,
2013-09-24 06:18:00,42.4,33.3,30.08,SW,221,0.0,3.0,70,0.00,CLR,CLR,0.00,WeatherDisplay:10.34,2013-09-24 10:18:00,
2013-09-24 06:23:00,42.6,33.2,30.08,SW,221,0.0,0.0,69,0.00,CLR,CLR,0.00,WeatherDisplay:10.34,2013-09-24 10:23:00,
2013-09-24 06:28:00,42.6,33.2,30.08,SW,221,0.0,0.0,69,0.00,CLR,CLR,0.00,WeatherDisplay:10.34,2013-09-24 10:28:00,
2013-09-24 06:33:00,42.6,33.2,30.08,SW,221,0.0,0.0,69,0.00,CLR,CLR,0.00,WeatherDisplay:10.34,2013-09-24 10:33:00,
2013-09-24 06:38:00,42.3,32.4,30.09,SW,221,0.0,0.0,68,0.00,CLR,CLR,0.00,WeatherDisplay:10.34,2013-09-24 10:38:00,
2013-09-24 06:43:00,42.1,32.3,30.09,SE,140,0.0,0.0,68,0.00,CLR,CLR,0.00,WeatherDisplay:10.34,2013-09-24 10:43:00,
2013-09-24 06:48:00,42.1,32.6,30.09,SSW,203,0.0,0.0,69,0.00,CLR,CLR,0.00,WeatherDisplay:10.34,2013-09-24 10:48:00,
2013-09-24 06:53:00,42.1,33.0,30.09,SW,216,0.0,0.0,70,0.00,CLR,CLR,0.00,WeatherDisplay:10.34,2013-09-24 10:53:00,
2013-09-24 06:58:00,42.1,33.4,30.09,SW,216,0.0,0.0,71,0.00,CLR,CLR,0.00,WeatherDisplay:10.34,2013-09-24 10:58:00,
2013-09-24 07:03:00,42.1,33.4,30.09,SW,216,0.0,0.0,71,0.00,CLR,CLR,0.00,WeatherDisplay:10.34,2013-09-24 11:03:00,
2013-09-24 07:08:00,42.3,33.5,30.09,NNE,15,3.0,7.0,71,0.00,CLR,CLR,0.00,WeatherDisplay:10.34,2013-09-24 11:08:00,
2013-09-24 07:13:00,42.4,33.7,30.09,NE,44,4.0,5.0,71,0.00,CLR,CLR,0.00,WeatherDisplay:10.34,2013-09-24 11:13:00,
2013-09-24 07:18:00,42.8,34.0,30.09,North,0,3.0,3.0,71,0.00,CLR,CLR,0.00,WeatherDisplay:10.34,2013-09-24 11:18:00,
2013-09-24 07:23:00,43.0,33.9,30.09,NNW,340,4.0,6.0,70,0.00,CLR,CLR,0.00,WeatherDisplay:10.34,2013-09-24 11:23:00,
2013-09-24 07:28:00,43.5,33.7,30.09,NNE,14,4.0,7.0,68,0.00,CLR,CLR,0.00,WeatherDisplay:10.34,2013-09-24 11:28:00,
2013-09-24 07:33:00,43.7,33.5,30.06,SSW,204,0.0,3.0,67,0.00,CLR,CLR,0.00,WeatherDisplay:10.34,2013-09-24 11:33:00,
2013-09-24 07:38:00,43.9,32.9,30.06,SW,225,0.0,5.0,65,0.00,CLR,CLR,0.00,WeatherDisplay:10.34,2013-09-24 11:38:00,
2013-09-24 07:43:00,44.1,33.0,30.06,SW,235,3.0,5.0,65,0.00,CLR,CLR,0.00,WeatherDisplay:10.34,2013-09-24 11:43:00,
2013-09-24 07:48:00,44.2,33.2,30.06,SW,231,0.0,0.0,65,0.00,CLR,CLR,0.00,WeatherDisplay:10.34,2013-09-24 11:48:00,
2013-09-24 07:53:00,44.6,33.9,30.06,SW,231,0.0,3.0,66,0.00,CLR,CLR,0.00,WeatherDisplay:10.34,2013-09-24 11:53:00,
2013-09-24 07:58:00,44.8,33.7,30.06,North,9,3.0,0.0,65,0.00,CLR,CLR,0.00,WeatherDisplay:10.34,2013-09-24 11:58:00,
2013-09-24 08:03:00,44.8,33.3,30.06,NW,305,4.0,6.0,64,0.00,CLR,CLR,0.00,WeatherDisplay:10.34,2013-09-24 12:03:00,
2013-09-24 08:08:00,45.1,33.3,30.06,North,9,0.0,5.0,63,0.00,CLR,CLR,0.00,WeatherDisplay:10.34,2013-09-24 12:08:00,
2013-09-24 08:13:00,45.3,33.5,30.06,North,9,0.0,5.0,63,0.00,CLR,CLR,0.00,WeatherDisplay:10.34,2013-09-24 12:13:00,
2013-09-24 08:18:00,45.5,33.2,30.06,North,3,0.0,2.0,62,0.00,CLR,CLR,0.00,WeatherDisplay:10.34,2013-09-24 12:18:00,
2013-09-24 08:23:00,45.7,33.4,30.05,SW,236,0.0,0.0,62,0.00,CLR,CLR,0.00,WeatherDisplay:10.34,2013-09-24 12:23:00,
2013-09-24 08:28:00,45.9,33.2,30.05,NW,318,0.0,0.0,61,0.00,CLR,CLR,0.00,WeatherDisplay:10.34,2013-09-24 12:28:00,
2013-09-24 08:33:00,46.0,32.5,30.05,SW,228,4.0,6.0,59,0.00,CLR,CLR,0.00,WeatherDisplay:10.34,2013-09-24 12:33:00,
2013-09-24 08:38:00,46.2,32.7,30.05,WSW,258,5.0,10.0,59,0.00,CLR,CLR,0.00,WeatherDisplay:10.34,2013-09-24 12:38:00,
2013-09-24 08:43:00,46.4,32.0,30.05,North,11,4.0,7.0,57,0.00,CLR,CLR,0.00,WeatherDisplay:10.34,2013-09-24 12:43:00,
2013-09-24 08:48:00,46.4,32.0,30.05,East,96,4.0,5.0,57,0.00,CLR,CLR,0.00,WeatherDisplay:10.34,2013-09-24 12:48:00,
2013-09-24 08:53:00,46.6,31.7,30.05,West,259,4.0,5.0,56,0.00,CLR,CLR,0.00,WeatherDisplay:10.34,2013-09-24 12:53:00,
2013-09-24 08:58:00,46.8,31.9,30.06,West,259,6.0,7.0,56,0.00,CLR,CLR,0.00,WeatherDisplay:10.34,2013-09-24 12:58:00,
2013-09-24 09:03:00,46.8,31.4,30.06,WSW,237,6.0,9.0,55,0.00,CLR,CLR,0.00,WeatherDisplay:10.34,2013-09-24 13:03:00,
2013-09-24 09:08:00,46.9,31.6,30.06,North,6,9.0,13.0,55,0.00,CLR,CLR,0.00,WeatherDisplay:10.34,2013-09-24 13:08:00,
2013-09-24 09:13:00,47.1,31.3,30.06,WSW,239,10.0,15.0,54,0.00,CLR,CLR,0.00,WeatherDisplay:10.34,2013-09-24 13:13:00,
2013-09-24 09:18:00,47.1,30.9,30.06,North,9,8.0,14.0,53,0.00,CLR,CLR,0.00,WeatherDisplay:10.34,2013-09-24 13:18:00,
2013-09-24 09:23:00,47.3,31.0,30.06,North,3,5.0,10.0,53,0.00,CLR,CLR,0.00,WeatherDisplay:10.34,2013-09-24 13:23:00,
2013-09-24 09:28:00,47.3,31.5,30.06,ESE,112,4.0,9.0,54,0.00,CLR,CLR,0.00,WeatherDisplay:10.34,2013-09-24 13:28:00,
2013-09-24 09:33:00,47.3,31.0,30.02,North,6,6.0,12.0,53,0.00,CLR,CLR,0.00,WeatherDisplay:10.34,2013-09-24 13:33:00,
2013-09-24 09:38:00,47.5,31.2,30.02,ESE,105,4.0,6.0,53,0.00,CLR,CLR,0.00,WeatherDisplay:10.34,2013-09-24 13:38:00,
2013-09-24 09:43:00,47.7,30.9,30.02,SSW,209,4.0,7.0,52,0.00,CLR,CLR,0.00,WeatherDisplay:10.34,2013-09-24 13:43:00,
2013-09-24 09:48:00,47.8,31.5,30.02,North,4,6.0,9.0,53,0.00,CLR,CLR,0.00,WeatherDisplay:10.34,2013-09-24 13:48:00,
2013-09-24 09:53:00,48.0,30.7,30.02,WSW,241,6.0,9.0,51,0.00,CLR,CLR,0.00,WeatherDisplay:10.34,2013-09-24 13:53:00,
2013-09-24 09:58:00,48.2,30.9,30.02,North,9,5.0,8.0,51,0.00,CLR,CLR,0.00,WeatherDisplay:10.34,2013-09-24 13:58:00,
2013-09-24 10:03:00,48.4,30.1,30.06,North,8,4.0,12.0,49,0.00,CLR,CLR,0.00,WeatherDisplay:10.34,2013-09-24 14:03:00,
2013-09-24 10:08:00,48.6,30.2,30.06,NNE,21,8.0,13.0,49,0.00,SCT,SCT,0.00,WeatherDisplay:10.34,2013-09-24 14:08:00,
2013-09-24 10:13:00,48.7,30.4,30.05,North,6,7.0,9.0,49,0.00,SCT,SCT,0.00,WeatherDisplay:10.34,2013-09-24 14:13:00,
2013-09-24 10:18:00,48.9,30.1,30.02,NNE,17,8.0,10.0,48,0.00,SCT,SCT,0.00,WeatherDisplay:10.34,2013-09-24 14:18:00,
2013-09-24 10:23:00,49.3,30.9,30.02,North,351,4.0,12.0,49,0.00,SCT,SCT,0.00,WeatherDisplay:10.34,2013-09-24 14:23:00,
2013-09-24 10:28:00,49.3,29.9,30.02,NNE,15,7.0,12.0,47,0.00,SCT,SCT,0.00,WeatherDisplay:10.34,2013-09-24 14:28:00,
2013-09-24 10:33:00,49.5,29.5,30.05,NE,43,10.0,17.0,46,0.00,SCT,SCT,0.00,WeatherDisplay:10.34,2013-09-24 14:33:00,
2013-09-24 10:38:00,49.6,29.7,30.05,NE,41,4.0,10.0,46,0.00,SCT,SCT,0.00,WeatherDisplay:10.34,2013-09-24 14:38:00,
2013-09-24 10:43:00,50.0,30.0,30.05,WNW,290,7.0,12.0,46,0.00,SCT,SCT,0.00,WeatherDisplay:10.34,2013-09-24 14:43:00,
2013-09-24 10:48:00,50.2,30.2,30.05,North,3,4.0,4.0,46,0.00,SCT,SCT,0.00,WeatherDisplay:10.34,2013-09-24 14:48:00,
2013-09-24 10:53:00,50.5,30.5,30.05,NNE,33,5.0,7.0,46,0.00,SCT,SCT,0.00,WeatherDisplay:10.34,2013-09-24 14:53:00,
2013-09-24 10:58:00,51.1,31.0,30.05,NNE,21,6.0,9.0,46,0.00,SCT,SCT,0.00,WeatherDisplay:10.34,2013-09-24 14:58:00,
2013-09-24 11:03:00,51.3,30.1,30.05,NNW,338,5.0,12.0,44,0.00,SCT,SCT,0.00,WeatherDisplay:10.34,2013-09-24 15:03:00,
2013-09-24 11:08:00,51.6,30.4,30.05,SW,223,8.0,13.0,44,0.00,FEW,FEW,0.00,WeatherDisplay:10.34,2013-09-24 15:08:00,
2013-09-24 11:13:00,51.8,30.0,30.05,WSW,239,5.0,7.0,43,0.00,FEW,FEW,0.00,WeatherDisplay:10.34,2013-09-24 15:13:00,
2013-09-24 11:18:00,52.2,30.3,30.05,NE,34,7.0,12.0,43,0.00,FEW,FEW,0.00,WeatherDisplay:10.34,2013-09-24 15:18:00,
2013-09-24 11:23:00,52.3,31.0,30.05,NNW,347,7.0,9.0,44,0.00,FEW,FEW,0.00,WeatherDisplay:10.34,2013-09-24 15:23:00,
2013-09-24 11:28:00,52.7,30.8,30.05,South,180,3.0,3.0,43,0.00,FEW,FEW,0.00,WeatherDisplay:10.34,2013-09-24 15:28:00,
2013-09-24 11:33:00,53.1,31.1,30.02,NNE,21,4.0,8.0,43,0.00,FEW,FEW,0.00,WeatherDisplay:10.34,2013-09-24 15:33:00,
2013-09-24 11:39:00,53.4,30.9,30.02,West,273,7.0,12.0,42,0.00,FEW,FEW,0.00,WeatherDisplay:10.34,2013-09-24 15:39:00,
2013-09-24 11:44:00,53.6,31.0,30.02,SE,125,4.0,6.0,42,0.00,FEW,FEW,0.00,WeatherDisplay:10.34,2013-09-24 15:44:00,
2013-09-24 11:49:00,53.4,30.9,30.02,SE,128,4.0,7.0,42,0.00,FEW,FEW,0.00,WeatherDisplay:10.34,2013-09-24 15:49:00,
2013-09-24 11:54:00,53.4,30.9,30.02,SW,228,4.0,7.0,42,0.00,FEW,FEW,0.00,WeatherDisplay:10.34,2013-09-24 15:54:00,
2013-09-24 11:59:00,53.6,32.2,30.02,NNE,17,4.0,7.0,44,0.00,FEW,FEW,0.00,WeatherDisplay:10.34,2013-09-24 15:59:00,
2013-09-24 12:04:00,53.8,31.8,30.02,West,274,3.0,6.0,43,0.00,FEW,FEW,0.00,WeatherDisplay:10.34,2013-09-24 16:04:00,
2013-09-24 12:09:00,54.1,31.5,30.02,NNW,339,6.0,6.0,42,0.00,CLR,CLR,0.00,WeatherDisplay:10.34,2013-09-24 16:09:00,
2013-09-24 12:14:00,54.3,32.3,30.02,North,2,4.0,7.0,43,0.00,CLR,CLR,0.00,WeatherDisplay:10.34,2013-09-24 16:14:00,
2013-09-24 12:19:00,54.3,31.1,30.02,NNE,25,4.0,9.0,41,0.00,CLR,CLR,0.00,WeatherDisplay:10.34,2013-09-24 16:19:00,
2013-09-24 12:24:00,54.5,30.6,30.02,NNE,29,7.0,9.0,40,0.00,CLR,CLR,0.00,WeatherDisplay:10.34,2013-09-24 16:24:00,
2013-09-24 12:29:00,54.7,30.8,30.02,North,5,7.0,9.0,40,0.00,CLR,CLR,0.00,WeatherDisplay:10.34,2013-09-24 16:29:00,
2013-09-24 12:34:00,54.7,30.8,30.02,NNW,346,5.0,8.0,40,0.00,CLR,CLR,0.00,WeatherDisplay:10.34,2013-09-24 16:34:00,
2013-09-24 12:39:00,54.7,30.8,30.02,NNE,14,4.0,14.0,40,0.00,CLR,CLR,0.00,WeatherDisplay:10.34,2013-09-24 16:39:00,
2013-09-24 12:44:00,54.7,30.8,30.01,NE,46,4.0,6.0,40,0.00,CLR,CLR,0.00,WeatherDisplay:10.34,2013-09-24 16:44:00,
2013-09-24 12:49:00,55.0,31.1,30.01,NNW,343,5.0,12.0,40,0.00,CLR,CLR,0.00,WeatherDisplay:10.34,2013-09-24 16:49:00,
2013-09-24 12:54:00,54.9,30.3,30.01,NNE,32,4.0,9.0,39,0.00,CLR,CLR,0.00,WeatherDisplay:10.34,2013-09-24 16:54:00,
2013-09-24 12:59:00,55.0,31.1,30.01,North,351,5.0,12.0,40,0.00,CLR,CLR,0.00,WeatherDisplay:10.34,2013-09-24 16:59:00,
2013-09-24 13:04:00,55.4,30.8,29.98,East,97,6.0,9.0,39,0.00,CLR,CLR,0.00,WeatherDisplay:10.34,2013-09-24 17:04:00,
2013-09-24 13:09:00,55.8,31.8,29.98,WSW,250,3.0,10.0,40,0.00,CLR,CLR,0.00,WeatherDisplay:10.34,2013-09-24 17:09:00,
2013-09-24 13:14:00,55.9,30.7,29.98,West,260,5.0,9.0,38,0.00,CLR,CLR,0.00,WeatherDisplay:10.34,2013-09-24 17:14:00,
2013-09-24 13:19:00,56.3,31.0,29.98,SSW,201,7.0,10.0,38,0.00,CLR,CLR,0.00,WeatherDisplay:10.34,2013-09-24 17:19:00,
2013-09-24 13:24:00,56.5,31.2,29.98,North,9,4.0,13.0,38,0.00,CLR,CLR,0.00,WeatherDisplay:10.34,2013-09-24 17:24:00,
2013-09-24 13:29:00,56.3,30.3,29.98,SSW,206,6.0,8.0,37,0.00,CLR,CLR,0.00,WeatherDisplay:10.34,2013-09-24 17:29:00,
2013-09-24 13:34:00,56.7,31.3,29.98,NNW,347,6.0,13.0,38,0.00,CLR,CLR,0.00,WeatherDisplay:10.34,2013-09-24 17:34:00,
2013-09-24 13:39:00,56.7,31.3,29.98,SE,144,4.0,7.0,38,0.00,CLR,CLR,0.00,WeatherDisplay:10.34,2013-09-24 17:39:00,
2013-09-24 13:44:00,56.7,31.3,29.98,SSE,155,4.0,5.0,38,0.00,CLR,CLR,0.00,WeatherDisplay:10.34,2013-09-24 17:44:00,
2013-09-24 13:49:00,56.8,30.8,30.01,North,11,4.0,9.0,37,0.00,CLR,CLR,0.00,WeatherDisplay:10.34,2013-09-24 17:49:00,
2013-09-24 13:54:00,56.8,30.8,30.01,NNE,15,10.0,13.0,37,0.00,CLR,CLR,0.00,WeatherDisplay:10.34,2013-09-24 17:54:00,
2013-09-24 13:59:00,56.8,30.8,30.01,NNE,15,5.0,9.0,37,0.00,CLR,CLR,0.00,WeatherDisplay:10.34,2013-09-24 17:59:00,
2013-09-24 14:04:00,57.0,31.0,29.98,NE,49,4.0,7.0,37,0.00,CLR,CLR,0.00,WeatherDisplay:10.34,2013-09-24 18:04:00,
2013-09-24 14:09:00,57.2,31.1,29.98,North,6,5.0,10.0,37,0.00,CLR,CLR,0.00,WeatherDisplay:10.34,2013-09-24 18:09:00,
2013-09-24 14:14:00,57.4,31.3,29.98,SW,227,6.0,12.0,37,0.00,CLR,CLR,0.00,WeatherDisplay:10.34,2013-09-24 18:14:00,
2013-09-24 14:19:00,57.7,31.6,30.01,NE,46,7.0,10.0,37,0.00,CLR,CLR,0.00,WeatherDisplay:10.34,2013-09-24 18:19:00,
2013-09-24 14:24:00,57.7,32.3,30.01,NNW,332,6.0,8.0,38,0.00,CLR,CLR,0.00,WeatherDisplay:10.34,2013-09-24 18:24:00,
2013-09-24 14:29:00,57.4,32.0,30.01,NE,35,6.0,8.0,38,0.00,CLR,CLR,0.00,WeatherDisplay:10.34,2013-09-24 18:29:00,
2013-09-24 14:34:00,56.8,31.5,30.01,North,3,4.0,4.0,38,0.00,CLR,CLR,0.00,WeatherDisplay:10.34,2013-09-24 18:34:00,
2013-09-24 14:39:00,56.7,32.0,30.01,North,351,3.0,6.0,39,0.00,CLR,CLR,0.00,WeatherDisplay:10.34,2013-09-24 18:39:00,
2013-09-24 14:44:00,56.5,32.4,30.01,NNE,28,4.0,8.0,40,0.00,CLR,CLR,0.00,WeatherDisplay:10.34,2013-09-24 18:44:00,
2013-09-24 14:49:00,56.3,32.3,30.01,NNE,26,0.0,3.0,40,0.00,CLR,CLR,0.00,WeatherDisplay:10.34,2013-09-24 18:49:00,
2013-09-24 14:54:00,56.3,34.1,30.01,NNE,24,0.0,0.0,43,0.00,CLR,CLR,0.00,WeatherDisplay:10.34,2013-09-24 18:54:00,
2013-09-24 14:59:00,56.1,35.6,30.01,NNE,26,3.0,3.0,46,0.00,CLR,CLR,0.00,WeatherDisplay:10.34,2013-09-24 18:59:00,
2013-09-24 15:04:00,56.1,35.6,30.01,ESE,113,4.0,7.0,46,0.00,CLR,CLR,0.00,WeatherDisplay:10.34,2013-09-24 19:04:00,
2013-09-24 15:09:00,55.9,35.4,30.01,ESE,108,0.0,3.0,46,0.00,CLR,CLR,0.00,WeatherDisplay:10.34,2013-09-24 19:09:00,
2013-09-24 15:14:00,55.9,34.9,30.01,ENE,67,0.0,5.0,45,0.00,CLR,CLR,0.00,WeatherDisplay:10.34,2013-09-24 19:14:00,
2013-09-24 15:19:00,55.8,34.7,30.01,East,93,4.0,6.0,45,0.00,CLR,CLR,0.00,WeatherDisplay:10.34,2013-09-24 19:19:00,
2013-09-24 15:24:00,55.8,34.7,30.01,NNE,33,0.0,5.0,45,0.00,CLR,CLR,0.00,WeatherDisplay:10.34,2013-09-24 19:24:00,
2013-09-24 15:29:00,55.8,34.7,30.01,NNE,21,3.0,6.0,45,0.00,CLR,CLR,0.00,WeatherDisplay:10.34,2013-09-24 19:29:00,
2013-09-24 15:34:00,55.8,35.3,30.01,North,2,3.0,3.0,46,0.00,CLR,CLR,0.00,WeatherDisplay:10.34,2013-09-24 19:34:00,
2013-09-24 15:39:00,55.4,34.4,30.02,NNE,15,3.0,6.0,45,0.00,CLR,CLR,0.00,WeatherDisplay:10.34,2013-09-24 19:39:00,
2013-09-24 15:44:00,55.2,34.8,30.02,North,10,5.0,7.0,46,0.00,CLR,CLR,0.00,WeatherDisplay:10.34,2013-09-24 19:44:00,
2013-09-24 15:49:00,55.2,34.8,30.02,NNW,337,3.0,8.0,46,0.00,CLR,CLR,0.00,WeatherDisplay:10.34,2013-09-24 19:49:00,
2013-09-24 15:54:00,55.0,34.1,30.02,NNE,23,4.0,8.0,45,0.00,CLR,CLR,0.00,WeatherDisplay:10.34,2013-09-24 19:54:00,
2013-09-24 15:59:00,55.0,34.1,30.02,NNE,16,6.0,7.0,45,0.00,CLR,CLR,0.00,WeatherDisplay:10.34,2013-09-24 19:59:00,
2013-09-24 16:04:00,55.4,34.4,30.02,North,351,4.0,5.0,45,0.00,OVC,OVC,0.00,WeatherDisplay:10.34,2013-09-24 20:04:00,
2013-09-24 16:09:00,55.6,35.1,30.01,East,92,3.0,6.0,46,0.00,OVC,OVC,0.00,WeatherDisplay:10.34,2013-09-24 20:09:00,
2013-09-24 16:14:00,55.8,35.3,30.01,East,95,0.0,3.0,46,0.00,OVC,OVC,0.00,WeatherDisplay:10.34,2013-09-24 20:14:00,
2013-09-24 16:19:00,55.4,34.9,30.05,East,95,3.0,3.0,46,0.00,OVC,OVC,0.00,WeatherDisplay:10.34,2013-09-24 20:19:00,
2013-09-24 16:24:00,55.0,34.6,30.05,NNE,32,0.0,6.0,46,0.00,OVC,OVC,0.00,WeatherDisplay:10.34,2013-09-24 20:24:00,
2013-09-24 16:29:00,54.7,34.8,30.05,North,351,3.0,3.0,47,0.00,OVC,OVC,0.00,WeatherDisplay:10.34,2013-09-24 20:29:00,
2013-09-24 16:34:00,54.5,34.1,30.05,NW,322,3.0,3.0,46,0.00,OVC,OVC,0.00,WeatherDisplay:10.34,2013-09-24 20:34:00,
2013-09-24 16:39:00,54.3,34.5,30.05,SSW,208,0.0,5.0,47,0.00,OVC,OVC,0.00,WeatherDisplay:10.34,2013-09-24 20:39:00,
2013-09-24 16:44:00,54.3,35.5,30.05,SSW,208,0.0,0.0,49,0.00,OVC,OVC,0.00,WeatherDisplay:10.34,2013-09-24 20:44:00,
2013-09-24 16:49:00,54.1,35.4,30.05,NNE,24,3.0,7.0,49,0.00,OVC,OVC,0.00,WeatherDisplay:10.34,2013-09-24 20:49:00,
2013-09-24 16:54:00,54.0,35.2,30.05,NNE,13,0.0,2.0,49,0.00,OVC,OVC,0.00,WeatherDisplay:10.34,2013-09-24 20:54:00,
2013-09-24 16:59:00,53.8,35.1,30.05,NNE,25,3.0,5.0,49,0.00,OVC,OVC,0.00,WeatherDisplay:10.34,2013-09-24 20:59:00,
2013-09-24 17:04:00,54.0,35.2,30.05,NNE,25,4.0,5.0,49,0.00,OVC,OVC,0.00,WeatherDisplay:10.34,2013-09-24 21:04:00,
2013-09-24 17:09:00,54.0,36.2,30.05,NNE,28,4.0,5.0,51,0.00,OVC,OVC,0.00,WeatherDisplay:10.34,2013-09-24 21:09:00,
2013-09-24 17:14:00,54.0,36.2,30.05,NNE,20,0.0,2.0,51,0.00,OVC,OVC,0.00,WeatherDisplay:10.34,2013-09-24 21:14:00,
2013-09-24 17:19:00,53.8,35.6,30.05,NNE,20,0.0,0.0,50,0.00,OVC,OVC,0.00,WeatherDisplay:10.34,2013-09-24 21:19:00,
2013-09-24 17:24:00,53.6,35.4,30.05,NNE,20,0.0,0.0,50,0.00,OVC,OVC,0.00,WeatherDisplay:10.34,2013-09-24 21:24:00,
2013-09-24 17:29:00,53.8,35.6,30.05,NNE,20,0.0,3.0,50,0.00,OVC,OVC,0.00,WeatherDisplay:10.34,2013-09-24 21:29:00,
2013-09-24 17:35:00,53.8,36.1,30.05,ENE,57,3.0,5.0,51,0.00,OVC,OVC,0.00,WeatherDisplay:10.34,2013-09-24 21:35:00,
2013-09-24 17:40:00,53.8,36.6,30.05,NNE,31,3.0,8.0,52,0.00,OVC,OVC,0.00,WeatherDisplay:10.34,2013-09-24 21:40:00,
2013-09-24 17:45:00,53.8,35.6,30.05,NE,41,0.0,3.0,50,0.00,OVC,OVC,0.00,WeatherDisplay:10.34,2013-09-24 21:45:00,
2013-09-24 17:50:00,53.6,35.9,30.05,NE,40,0.0,0.0,51,0.00,OVC,OVC,0.00,WeatherDisplay:10.34,2013-09-24 21:50:00,
2013-09-24 17:55:00,53.4,36.2,30.05,NE,39,0.0,2.0,52,0.00,OVC,OVC,0.00,WeatherDisplay:10.34,2013-09-24 21:55:00,
2013-09-24 18:00:00,53.4,37.2,30.05,NNE,31,4.0,6.0,54,0.00,OVC,OVC,0.00,WeatherDisplay:10.34,2013-09-24 22:00:00,
2013-09-24 18:05:00,53.2,36.5,30.05,NNE,15,5.0,7.0,53,0.00,BKN,BKN,0.00,WeatherDisplay:10.34,2013-09-24 22:05:00,
2013-09-24 18:10:00,53.1,34.9,30.05,North,8,0.0,0.0,50,0.00,BKN,BKN,0.00,WeatherDisplay:10.34,2013-09-24 22:10:00,
2013-09-24 18:15:00,53.1,35.4,30.05,North,9,3.0,5.0,51,0.00,BKN,BKN,0.00,WeatherDisplay:10.34,2013-09-24 22:15:00,
2013-09-24 18:20:00,53.1,35.4,30.05,North,11,0.0,6.0,51,0.00,BKN,BKN,0.00,WeatherDisplay:10.34,2013-09-24 22:20:00,
2013-09-24 18:25:00,52.9,35.2,30.05,WNW,301,4.0,5.0,51,0.00,BKN,BKN,0.00,WeatherDisplay:10.34,2013-09-24 22:25:00,
2013-09-24 18:30:00,52.7,35.6,30.05,WNW,302,3.0,5.0,52,0.00,BKN,BKN,0.00,WeatherDisplay:10.34,2013-09-24 22:30:00,
2013-09-24 18:35:00,52.3,35.7,30.05,WNW,302,0.0,3.0,53,0.00,BKN,BKN,0.00,WeatherDisplay:10.34,2013-09-24 22:35:00,
2013-09-24 18:40:00,52.2,36.0,30.05,WNW,302,0.0,0.0,54,0.00,BKN,BKN,0.00,WeatherDisplay:10.34,2013-09-24 22:40:00,
2013-09-24 18:45:00,51.8,36.1,30.05,WNW,302,0.0,0.0,55,0.00,BKN,BKN,0.00,WeatherDisplay:10.34,2013-09-24 22:45:00,
2013-09-24 18:50:00,51.6,36.4,30.05,WNW,303,0.0,0.0,56,0.00,BKN,BKN,0.00,WeatherDisplay:10.34,2013-09-24 22:50:00,
2013-09-24 18:55:00,51.6,36.9,30.05,WNW,303,0.0,3.0,57,0.00,BKN,BKN,0.00,WeatherDisplay:10.34,2013-09-24 22:55:00,
2013-09-24 19:00:00,51.4,37.1,30.05,WNW,302,0.0,3.0,58,0.00,BKN,BKN,0.00,WeatherDisplay:10.34,2013-09-24 23:00:00,
2013-09-24 19:05:00,51.4,37.6,30.08,WNW,303,0.0,3.0,59,0.00,OVC,OVC,0.00,WeatherDisplay:10.34,2013-09-24 23:05:00,
2013-09-24 19:10:00,51.3,37.4,30.08,WNW,303,0.0,0.0,59,0.00,OVC,OVC,0.00,WeatherDisplay:10.34,2013-09-24 23:10:00,
2013-09-24 19:15:00,51.1,37.2,30.08,WNW,303,0.0,0.0,59,0.00,OVC,OVC,0.00,WeatherDisplay:10.34,2013-09-24 23:15:00,
2013-09-24 19:20:00,50.9,37.9,30.08,WNW,303,0.0,0.0,61,0.00,OVC,OVC,0.00,WeatherDisplay:10.34,2013-09-24 23:20:00,
2013-09-24 19:25:00,50.9,38.3,30.08,WNW,303,0.0,0.0,62,0.00,OVC,OVC,0.00,WeatherDisplay:10.34,2013-09-24 23:25:00,
2013-09-24 19:30:00,50.7,38.6,30.08,WNW,303,0.0,0.0,63,0.00,OVC,OVC,0.00,WeatherDisplay:10.34,2013-09-24 23:30:00,
2013-09-24 19:35:00,50.9,39.1,30.08,WNW,303,0.0,0.0,64,0.00,OVC,OVC,0.00,WeatherDisplay:10.34,2013-09-24 23:35:00,
2013-09-24 19:40:00,50.7,39.4,30.08,WNW,303,0.0,0.0,65,0.00,OVC,OVC,0.00,WeatherDisplay:10.34,2013-09-24 23:40:00,
2013-09-24 19:45:00,50.7,39.4,30.08,WNW,303,0.0,0.0,65,0.00,OVC,OVC,0.00,WeatherDisplay:10.34,2013-09-24 23:45:00,
2013-09-24 19:50:00,50.7,39.4,30.08,WNW,303,0.0,0.0,65,0.00,OVC,OVC,0.00,WeatherDisplay:10.34,2013-09-24 23:50:00,
2013-09-24 19:55:00,50.5,39.2,30.08,WNW,302,0.0,0.0,65,0.00,OVC,OVC,0.00,WeatherDisplay:10.34,2013-09-24 23:55:00,
2013-09-24 20:00:00,50.4,39.0,30.08,NNW,346,0.0,0.0,65,0.00,OVC,OVC,0.00,WeatherDisplay:10.34,2013-09-25 00:00:00,
2013-09-24 20:05:00,50.4,39.0,30.08,NNW,346,0.0,0.0,65,0.00,OVC,OVC,0.00,WeatherDisplay:10.34,2013-09-25 00:05:00,
2013-09-24 20:10:00,50.2,38.9,30.08,NNW,346,0.0,0.0,65,0.00,OVC,OVC,0.00,WeatherDisplay:10.34,2013-09-25 00:10:00,
2013-09-24 20:15:00,50.2,38.9,30.08,NNW,346,0.0,0.0,65,0.00,OVC,OVC,0.00,WeatherDisplay:10.34,2013-09-25 00:15:00,
2013-09-24 20:20:00,50.2,38.9,30.08,NNW,346,0.0,0.0,65,0.00,OVC,OVC,0.00,WeatherDisplay:10.34,2013-09-25 00:20:00,
2013-09-24 20:25:00,50.2,38.5,30.08,NNW,346,0.0,0.0,64,0.00,OVC,OVC,0.00,WeatherDisplay:10.34,2013-09-25 00:25:00,
2013-09-24 20:30:00,50.2,38.5,30.08,NNE,27,0.0,0.0,64,0.00,OVC,OVC,0.00,WeatherDisplay:10.34,2013-09-25 00:30:00,
2013-09-24 20:35:00,50.0,38.3,30.08,North,2,0.0,0.0,64,0.00,OVC,OVC,0.00,WeatherDisplay:10.34,2013-09-25 00:35:00,
2013-09-24 20:40:00,50.2,38.5,30.08,North,2,0.0,0.0,64,0.00,OVC,OVC,0.00,WeatherDisplay:10.34,2013-09-25 00:40:00,
2013-09-24 20:45:00,50.2,38.5,30.08,North,9,0.0,0.0,64,0.00,OVC,OVC,0.00,WeatherDisplay:10.34,2013-09-25 00:45:00,
2013-09-24 20:50:00,50.2,38.1,30.08,North,2,0.0,0.0,63,0.00,OVC,OVC,0.00,WeatherDisplay:10.34,2013-09-25 00:50:00,
2013-09-24 20:55:00,49.8,38.1,30.08,North,1,0.0,0.0,64,0.00,OVC,OVC,0.00,WeatherDisplay:10.34,2013-09-25 00:55:00,
2013-09-24 21:00:00,49.6,38.0,30.08,North,3,0.0,0.0,64,0.00,OVC,OVC,0.00,WeatherDisplay:10.34,2013-09-25 01:00:00,
2013-09-24 21:05:00,49.5,38.2,30.08,North,2,0.0,0.0,65,0.00,OVC,OVC,0.00,WeatherDisplay:10.34,2013-09-25 01:05:00,
2013-09-24 21:10:00,49.1,38.2,30.08,North,2,0.0,0.0,66,0.00,OVC,OVC,0.00,WeatherDisplay:10.34,2013-09-25 01:10:00,
2013-09-24 21:15:00,48.9,38.4,30.08,North,2,0.0,0.0,67,0.00,OVC,OVC,0.00,WeatherDisplay:10.34,2013-09-25 01:15:00,
2013-09-24 21:20:00,48.7,38.3,30.08,North,2,0.0,0.0,67,0.00,OVC,OVC,0.00,WeatherDisplay:10.34,2013-09-25 01:20:00,
2013-09-24 21:25:00,48.6,38.5,30.08,North,1,0.0,0.0,68,0.00,OVC,OVC,0.00,WeatherDisplay:10.34,2013-09-25 01:25:00,
2013-09-24 21:30:00,48.6,38.5,30.08,North,9,0.0,0.0,68,0.00,OVC,OVC,0.00,WeatherDisplay:10.34,2013-09-25 01:30:00,
2013-09-24 21:35:00,48.2,38.1,30.08,North,2,0.0,0.0,68,0.00,OVC,OVC,0.00,WeatherDisplay:10.34,2013-09-25 01:35:00,
2013-09-24 21:40:00,48.2,38.5,30.08,North,2,0.0,0.0,69,0.00,OVC,OVC,0.00,WeatherDisplay:10.34,2013-09-25 01:40:00,
2013-09-24 21:45:00,48.0,38.3,30.08,North,3,0.0,0.0,69,0.00,OVC,OVC,0.00,WeatherDisplay:10.34,2013-09-25 01:45:00,
2013-09-24 21:50:00,48.0,38.7,30.08,North,1,0.0,0.0,70,0.00,OVC,OVC,0.00,WeatherDisplay:10.34,2013-09-25 01:50:00,
2013-09-24 21:55:00,47.8,38.9,30.08,North,1,0.0,0.0,71,0.00,OVC,OVC,0.00,WeatherDisplay:10.34,2013-09-25 01:55:00,
2013-09-24 22:00:00,47.7,38.7,30.08,North,0,0.0,0.0,71,0.00,OVC,OVC,0.00,WeatherDisplay:10.34,2013-09-25 02:00:00,
2013-09-24 22:05:00,47.7,38.7,30.08,North,0,0.0,0.0,71,0.00,OVC,OVC,0.00,WeatherDisplay:10.34,2013-09-25 02:05:00,
2013-09-24 22:10:00,47.7,38.7,30.08,North,1,0.0,0.0,71,0.00,OVC,OVC,0.00,WeatherDisplay:10.34,2013-09-25 02:10:00,
2013-09-24 22:15:00,47.7,38.7,30.08,North,1,0.0,0.0,71,0.00,OVC,OVC,0.00,WeatherDisplay:10.34,2013-09-25 02:15:00,
2013-09-24 22:20:00,47.5,38.5,30.08,North,1,0.0,0.0,71,0.00,OVC,OVC,0.00,WeatherDisplay:10.34,2013-09-25 02:20:00,
2013-09-24 22:25:00,47.3,38.4,30.08,North,1,0.0,0.0,71,0.00,OVC,OVC,0.00,WeatherDisplay:10.34,2013-09-25 02:25:00,
2013-09-24 22:30:00,47.1,38.6,30.08,North,1,0.0,0.0,72,0.00,OVC,OVC,0.00,WeatherDisplay:10.34,2013-09-25 02:30:00,
2013-09-24 22:35:00,47.1,38.6,30.08,North,1,0.0,0.0,72,0.00,OVC,OVC,0.00,WeatherDisplay:10.34,2013-09-25 02:35:00,
2013-09-24 22:40:00,46.9,38.7,30.08,North,1,0.0,0.0,73,0.00,OVC,OVC,0.00,WeatherDisplay:10.34,2013-09-25 02:40:00,
2013-09-24 22:45:00,46.9,38.7,30.08,North,1,0.0,0.0,73,0.00,OVC,OVC,0.00,WeatherDisplay:10.34,2013-09-25 02:45:00,
2013-09-24 22:50:00,46.9,38.7,30.08,North,1,0.0,0.0,73,0.00,OVC,OVC,0.00,WeatherDisplay:10.34,2013-09-25 02:50:00,
2013-09-24 22:55:00,46.8,38.6,30.08,North,1,0.0,0.0,73,0.00,OVC,OVC,0.00,WeatherDisplay:10.34,2013-09-25 02:55:00,
2013-09-24 23:00:00,46.9,38.7,30.05,North,1,0.0,0.0,73,0.00,OVC,OVC,0.00,WeatherDisplay:10.34,2013-09-25 03:00:00,
2013-09-24 23:05:00,46.8,38.6,30.05,North,1,0.0,0.0,73,0.00,FEW,FEW,0.00,WeatherDisplay:10.34,2013-09-25 03:05:00,
2013-09-24 23:10:00,46.8,38.6,30.05,North,1,0.0,0.0,73,0.00,FEW,FEW,0.00,WeatherDisplay:10.34,2013-09-25 03:10:00,
2013-09-24 23:15:00,46.8,38.6,30.05,North,1,0.0,0.0,73,0.00,FEW,FEW,0.00,WeatherDisplay:10.34,2013-09-25 03:15:00,
2013-09-24 23:20:00,46.8,38.6,30.05,North,1,0.0,0.0,73,0.00,FEW,FEW,0.00,WeatherDisplay:10.34,2013-09-25 03:20:00,
2013-09-24 23:25:00,46.6,38.4,30.05,North,1,0.0,0.0,73,0.00,FEW,FEW,0.00,WeatherDisplay:10.34,2013-09-25 03:25:00,
2013-09-24 23:30:00,46.4,38.2,30.05,North,1,0.0,0.0,73,0.00,FEW,FEW,0.00,WeatherDisplay:10.34,2013-09-25 03:30:00,
2013-09-24 23:35:00,46.2,38.4,30.08,North,1,0.0,0.0,74,0.00,FEW,FEW,0.00,WeatherDisplay:10.34,2013-09-25 03:35:00,
2013-09-24 23:40:00,46.2,38.4,30.08,North,1,0.0,0.0,74,0.00,FEW,FEW,0.00,WeatherDisplay:10.34,2013-09-25 03:40:00,
2013-09-24 23:45:00,46.2,38.4,30.05,North,1,0.0,0.0,74,0.00,FEW,FEW,0.00,WeatherDisplay:10.34,2013-09-25 03:45:00,
2013-09-24 23:50:00,46.0,38.6,30.05,North,1,0.0,0.0,75,0.00,FEW,FEW,0.00,WeatherDisplay:10.34,2013-09-25 03:50:00,
2013-09-24 23:55:00,46.0,38.6,30.05,North,1,0.0,0.0,75,0.00,FEW,FEW,0.00,WeatherDisplay:10.34,2013-09-25 03:55:00,